sensor_id;sensor_type;location;lat;lon;timestamp;pressure;altitude;pressure_sealevel;temperature;humidity
71966;BME280;59836;52.132;5.442;2023-03-25T00:01:38;100123.53;;;9.84;77.73
71966;BME280;59836;52.132;5.442;2023-03-25T00:04:05;100122.72;;;9.83;77.53
71966;BME280;59836;52.132;5.442;2023-03-25T00:06:32;100124.63;;;9.83;77.73
71966;BME280;59836;52.132;5.442;2023-03-25T00:09:02;100117.31;;;9.83;77.28
71966;BME280;59836;52.132;5.442;2023-03-25T00:11:29;100121.66;;;9.79;77.56
71966;BME280;59836;52.132;5.442;2023-03-25T00:13:56;100114.88;;;9.82;78.07
71966;BME280;59836;52.132;5.442;2023-03-25T00:16:50;100126.81;;;9.81;77.43
71966;BME280;59836;52.132;5.442;2023-03-25T00:19:18;100123.28;;;9.80;77.64
71966;BME280;59836;52.132;5.442;2023-03-25T00:21:49;100131.69;;;9.79;77.43
71966;BME280;59836;52.132;5.442;2023-03-25T00:24:23;100127.63;;;9.76;78.00
71966;BME280;59836;52.132;5.442;2023-03-25T00:26:49;100119.81;;;9.74;77.99
71966;BME280;59836;52.132;5.442;2023-03-25T00:29:16;100115.50;;;9.73;78.00
71966;BME280;59836;52.132;5.442;2023-03-25T00:31:42;100114.41;;;9.74;77.49
71966;BME280;59836;52.132;5.442;2023-03-25T00:34:35;100109.53;;;9.71;77.93
71966;BME280;59836;52.132;5.442;2023-03-25T00:37:14;100116.84;;;9.71;77.70
71966;BME280;59836;52.132;5.442;2023-03-25T00:39:51;100124.19;;;9.70;77.99
71966;BME280;59836;52.132;5.442;2023-03-25T00:42:46;100123.09;;;9.71;77.90
71966;BME280;59836;52.132;5.442;2023-03-25T00:45:19;100116.31;;;9.69;78.00
71966;BME280;59836;52.132;5.442;2023-03-25T00:47:56;100114.44;;;9.69;78.22
71966;BME280;59836;52.132;5.442;2023-03-25T00:50:23;100126.59;;;9.72;78.22
71966;BME280;59836;52.132;5.442;2023-03-25T00:52:56;100114.66;;;9.73;77.95
71966;BME280;59836;52.132;5.442;2023-03-25T00:55:22;100117.66;;;9.71;78.06
71966;BME280;59836;52.132;5.442;2023-03-25T00:57:49;100123.13;;;9.66;77.96
71966;BME280;59836;52.132;5.442;2023-03-25T01:00:35;100113.91;;;9.67;77.89
71966;BME280;59836;52.132;5.442;2023-03-25T01:03:01;100117.41;;;9.68;77.83
71966;BME280;59836;52.132;5.442;2023-03-25T01:05:30;100116.31;;;9.69;77.82
71966;BME280;59836;52.132;5.442;2023-03-25T01:07:57;100115.53;;;9.68;77.33
71966;BME280;59836;52.132;5.442;2023-03-25T01:10:23;100119.31;;;9.67;77.51
71966;BME280;59836;52.132;5.442;2023-03-25T01:13:22;100121.72;;;9.69;77.41
71966;BME280;59836;52.132;5.442;2023-03-25T01:15:51;100119.31;;;9.67;77.37
71966;BME280;59836;52.132;5.442;2023-03-25T01:18:35;100116.09;;;9.65;76.38
71966;BME280;59836;52.132;5.442;2023-03-25T01:21:33;100113.91;;;9.67;77.58
71966;BME280;59836;52.132;5.442;2023-03-25T01:24:03;100119.03;;;9.69;77.50
71966;BME280;59836;52.132;5.442;2023-03-25T01:26:36;100115.53;;;9.68;77.65
71966;BME280;59836;52.132;5.442;2023-03-25T01:29:03;100110.09;;;9.68;77.50
71966;BME280;59836;52.132;5.442;2023-03-25T01:31:35;100102.56;;;9.65;77.48
71966;BME280;59836;52.132;5.442;2023-03-25T01:34:18;100116.09;;;9.65;77.19
71966;BME280;59836;52.132;5.442;2023-03-25T01:36:46;100102.03;;;9.63;77.75
71966;BME280;59836;52.132;5.442;2023-03-25T01:39:14;100110.41;;;9.62;78.08
71966;BME280;59836;52.132;5.442;2023-03-25T01:41:43;100093.13;;;9.57;78.13
71966;BME280;59836;52.132;5.442;2023-03-25T01:47:24;100109.66;;;9.56;78.55
71966;BME280;59836;52.132;5.442;2023-03-25T01:49:52;100099.91;;;9.55;79.17
71966;BME280;59836;52.132;5.442;2023-03-25T01:52:23;100100.22;;;9.53;79.93
71966;BME280;59836;52.132;5.442;2023-03-25T01:54:57;100102.09;;;9.53;80.18
71966;BME280;59836;52.132;5.442;2023-03-25T01:57:25;100111.59;;;9.50;80.19
71966;BME280;59836;52.132;5.442;2023-03-25T01:59:54;100114.56;;;9.49;80.07
71966;BME280;59836;52.132;5.442;2023-03-25T02:02:22;100112.41;;;9.45;80.52
71966;BME280;59836;52.132;5.442;2023-03-25T02:04:56;100105.38;;;9.44;81.16
71966;BME280;59836;52.132;5.442;2023-03-25T02:07:28;100108.69;;;9.36;81.24
71966;BME280;59836;52.132;5.442;2023-03-25T02:10:14;100097.63;;;9.33;82.52
71966;BME280;59836;52.132;5.442;2023-03-25T02:12:42;100097.09;;;9.30;82.32
71966;BME280;59836;52.132;5.442;2023-03-25T02:15:12;100097.34;;;9.29;82.60
71966;BME280;59836;52.132;5.442;2023-03-25T02:17:53;100095.22;;;9.26;81.90
71966;BME280;59836;52.132;5.442;2023-03-25T02:26:24;100098.22;;;9.19;82.60
71966;BME280;59836;52.132;5.442;2023-03-25T02:29:17;100101.75;;;9.14;83.06
71966;BME280;59836;52.132;5.442;2023-03-25T02:40:55;100108.09;;;8.94;85.24
71966;BME280;59836;52.132;5.442;2023-03-25T02:43:56;100102.44;;;8.91;85.40
71966;BME280;59836;52.132;5.442;2023-03-25T02:50:08;100096.50;;;8.83;85.80
71966;BME280;59836;52.132;5.442;2023-03-25T02:52:48;100092.44;;;8.81;85.46
71966;BME280;59836;52.132;5.442;2023-03-25T02:55:25;100091.34;;;8.87;85.79
71966;BME280;59836;52.132;5.442;2023-03-25T02:57:58;100098.63;;;8.92;85.88
71966;BME280;59836;52.132;5.442;2023-03-25T03:00:29;100099.16;;;8.94;85.43
71966;BME280;59836;52.132;5.442;2023-03-25T03:03:01;100086.44;;;8.94;85.28
71966;BME280;59836;52.132;5.442;2023-03-25T03:05:38;100085.09;;;8.97;85.90
71966;BME280;59836;52.132;5.442;2023-03-25T03:08:20;100088.34;;;8.99;85.54
71966;BME280;59836;52.132;5.442;2023-03-25T03:22:20;100071.56;;;8.97;85.54
71966;BME280;59836;52.132;5.442;2023-03-25T03:25:19;100072.91;;;8.99;85.84
71966;BME280;59836;52.132;5.442;2023-03-25T03:28:06;100072.59;;;9.01;85.25
71966;BME280;59836;52.132;5.442;2023-03-25T03:31:36;100073.13;;;9.03;85.96
71966;BME280;59836;52.132;5.442;2023-03-25T03:33:42;100073.72;;;9.00;86.00
71966;BME280;59836;52.132;5.442;2023-03-25T03:36:16;100080.78;;;8.96;86.92
71966;BME280;59836;52.132;5.442;2023-03-25T03:38:48;100065.63;;;8.95;86.57
71966;BME280;59836;52.132;5.442;2023-03-25T03:44:18;100073.47;;;8.91;86.92
71966;BME280;59836;52.132;5.442;2023-03-25T03:46:54;100071.59;;;8.92;86.75
71966;BME280;59836;52.132;5.442;2023-03-25T03:49:29;100072.66;;;8.96;87.04
71966;BME280;59836;52.132;5.442;2023-03-25T03:54:57;100076.19;;;8.91;86.72
71966;BME280;59836;52.132;5.442;2023-03-25T03:57:50;100062.41;;;8.93;86.55
71966;BME280;59836;52.132;5.442;2023-03-25T04:00:30;100057.00;;;8.93;87.14
71966;BME280;59836;52.132;5.442;2023-03-25T04:03:18;100061.63;;;8.82;87.52
71966;BME280;59836;52.132;5.442;2023-03-25T04:05:57;100057.03;;;8.82;88.13
71966;BME280;59836;52.132;5.442;2023-03-25T04:08:56;100060.50;;;8.88;87.36
71966;BME280;59836;52.132;5.442;2023-03-25T04:11:47;100061.34;;;8.83;87.75
71966;BME280;59836;52.132;5.442;2023-03-25T04:14:19;100053.22;;;8.89;87.89
71966;BME280;59836;52.132;5.442;2023-03-25T04:16:54;100046.72;;;8.90;88.09
71966;BME280;59836;52.132;5.442;2023-03-25T04:19:30;100053.47;;;8.87;88.48
71966;BME280;59836;52.132;5.442;2023-03-25T04:22:04;100050.00;;;8.86;88.51
71966;BME280;59836;52.132;5.442;2023-03-25T04:24:31;100054.88;;;8.84;88.23
71966;BME280;59836;52.132;5.442;2023-03-25T04:27:03;100045.13;;;8.83;87.98
71966;BME280;59836;52.132;5.442;2023-03-25T04:29:43;100045.16;;;8.78;88.28
71966;BME280;59836;52.132;5.442;2023-03-25T04:32:26;100051.34;;;8.79;89.03
71966;BME280;59836;52.132;5.442;2023-03-25T04:34:59;100050.56;;;8.78;89.24
71966;BME280;59836;52.132;5.442;2023-03-25T04:37:35;100044.09;;;8.74;89.64
71966;BME280;59836;52.132;5.442;2023-03-25T04:40:04;100047.88;;;8.73;89.27
71966;BME280;59836;52.132;5.442;2023-03-25T04:42:49;100028.44;;;8.71;89.71
71966;BME280;59836;52.132;5.442;2023-03-25T04:45:18;100038.16;;;8.67;90.15
71966;BME280;59836;52.132;5.442;2023-03-25T04:47:50;100052.78;;;8.66;90.86
71966;BME280;59836;52.132;5.442;2023-03-25T04:50:27;100063.59;;;8.66;90.65
71966;BME280;59836;52.132;5.442;2023-03-25T04:53:03;100067.09;;;8.66;90.89
71966;BME280;59836;52.132;5.442;2023-03-25T04:55:36;100086.00;;;8.66;90.84
71966;BME280;59836;52.132;5.442;2023-03-25T04:58:04;100067.09;;;8.66;91.16
71966;BME280;59836;52.132;5.442;2023-03-25T05:00:31;100078.19;;;8.65;91.08
71966;BME280;59836;52.132;5.442;2023-03-25T05:03:01;100082.22;;;8.67;90.83
71966;BME280;59836;52.132;5.442;2023-03-25T05:05:30;100076.03;;;8.67;89.98
71966;BME280;59836;52.132;5.442;2023-03-25T05:07:56;100081.97;;;8.69;90.75
71966;BME280;59836;52.132;5.442;2023-03-25T05:10:26;100080.59;;;8.66;90.45
71966;BME280;59836;52.132;5.442;2023-03-25T05:13:00;100078.19;;;8.65;90.80
71966;BME280;59836;52.132;5.442;2023-03-25T05:15:33;100075.47;;;8.65;89.84
71966;BME280;59836;52.132;5.442;2023-03-25T05:18:10;100075.22;;;8.61;90.29
71966;BME280;59836;52.132;5.442;2023-03-25T05:20:38;100083.06;;;8.63;89.85
71966;BME280;59836;52.132;5.442;2023-03-25T05:23:06;100080.91;;;8.60;90.84
71966;BME280;59836;52.132;5.442;2023-03-25T05:25:41;100083.31;;;8.61;90.80
71966;BME280;59836;52.132;5.442;2023-03-25T05:28:17;100088.75;;;8.56;90.54
71966;BME280;59836;52.132;5.442;2023-03-25T05:30:45;100087.41;;;8.53;90.24
71966;BME280;59836;52.132;5.442;2023-03-25T05:33:14;100082.00;;;8.53;90.33
71966;BME280;59836;52.132;5.442;2023-03-25T05:35:42;100077.13;;;8.55;90.36
71966;BME280;59836;52.132;5.442;2023-03-25T05:38:09;100072.81;;;8.54;90.58
71966;BME280;59836;52.132;5.442;2023-03-25T05:40:45;100074.44;;;8.55;90.85
71966;BME280;59836;52.132;5.442;2023-03-25T05:43:13;100075.22;;;8.56;90.50
71966;BME280;59836;52.132;5.442;2023-03-25T05:45:41;100086.03;;;8.56;90.20
71966;BME280;59836;52.132;5.442;2023-03-25T05:48:08;100087.97;;;8.50;89.45
71966;BME280;59836;52.132;5.442;2023-03-25T05:50:41;100093.09;;;8.47;89.62
71966;BME280;59836;52.132;5.442;2023-03-25T05:53:12;100094.44;;;8.49;90.17
71966;BME280;59836;52.132;5.442;2023-03-25T05:55:41;100087.97;;;8.50;89.74
71966;BME280;59836;52.132;5.442;2023-03-25T05:58:07;100091.19;;;8.52;88.90
71966;BME280;59836;52.132;5.442;2023-03-25T06:00:33;100096.59;;;8.52;89.00
71966;BME280;59836;52.132;5.442;2023-03-25T06:03:05;100092.00;;;8.53;89.47
71966;BME280;59836;52.132;5.442;2023-03-25T06:05:32;100094.97;;;8.51;89.02
71966;BME280;59836;52.132;5.442;2023-03-25T06:08:09;100102.78;;;8.53;89.51
71966;BME280;59836;52.132;5.442;2023-03-25T06:10:36;100103.09;;;8.51;89.01
71966;BME280;59836;52.132;5.442;2023-03-25T06:13:02;100107.41;;;8.52;89.05
71966;BME280;59836;52.132;5.442;2023-03-25T06:15:29;100102.00;;;8.52;88.09
71966;BME280;59836;52.132;5.442;2023-03-25T06:17:59;100104.41;;;8.54;88.08
71966;BME280;59836;52.132;5.442;2023-03-25T06:20:26;100108.47;;;8.56;87.97
71966;BME280;59836;52.132;5.442;2023-03-25T06:22:52;100107.66;;;8.56;87.84
71966;BME280;59836;52.132;5.442;2023-03-25T06:25:26;100107.94;;;8.60;88.14
71966;BME280;59836;52.132;5.442;2023-03-25T06:27:56;100103.88;;;8.57;88.00
71966;BME280;59836;52.132;5.442;2023-03-25T06:30:26;100105.75;;;8.62;88.04
71966;BME280;59836;52.132;5.442;2023-03-25T06:32:53;100105.22;;;8.65;87.86
71966;BME280;59836;52.132;5.442;2023-03-25T06:35:24;100112.75;;;8.73;87.82
71966;BME280;59836;52.132;5.442;2023-03-25T06:37:53;100104.09;;;8.81;87.44
71966;BME280;59836;52.132;5.442;2023-03-25T06:40:20;100104.06;;;8.86;88.28
71966;BME280;59836;52.132;5.442;2023-03-25T06:43:04;100109.75;;;8.85;87.73
71966;BME280;59836;52.132;5.442;2023-03-25T06:45:32;100112.72;;;8.83;88.33
71966;BME280;59836;52.132;5.442;2023-03-25T06:47:59;100114.06;;;8.81;89.35
71966;BME280;59836;52.132;5.442;2023-03-25T06:50:26;100123.56;;;8.78;89.35
71966;BME280;59836;52.132;5.442;2023-03-25T06:52:52;100134.94;;;8.75;89.22
71966;BME280;59836;52.132;5.442;2023-03-25T06:55:26;100125.22;;;8.69;89.40
71966;BME280;59836;52.132;5.442;2023-03-25T06:57:56;100122.25;;;8.60;89.85
71966;BME280;59836;52.132;5.442;2023-03-25T07:00:22;100131.19;;;8.61;90.82
71966;BME280;59836;52.132;5.442;2023-03-25T07:02:51;100147.94;;;8.63;91.05
71966;BME280;59836;52.132;5.442;2023-03-25T07:05:18;100127.94;;;8.59;90.47
71966;BME280;59836;52.132;5.442;2023-03-25T07:07:45;100129.56;;;8.54;90.79
71966;BME280;59836;52.132;5.442;2023-03-25T07:10:12;100139.28;;;8.55;91.20
71966;BME280;59836;52.132;5.442;2023-03-25T07:12:39;100126.88;;;8.49;90.87
71966;BME280;59836;52.132;5.442;2023-03-25T07:15:06;100131.72;;;8.47;91.23
71966;BME280;59836;52.132;5.442;2023-03-25T07:17:33;100142.53;;;8.47;91.28
71966;BME280;59836;52.132;5.442;2023-03-25T07:20:01;100138.75;;;8.43;91.78
71966;BME280;59836;52.132;5.442;2023-03-25T07:22:28;100147.94;;;8.47;92.02
71966;BME280;59836;52.132;5.442;2023-03-25T07:24:55;100136.31;;;8.47;92.41
71966;BME280;59836;52.132;5.442;2023-03-25T07:27:23;100144.97;;;8.44;92.21
71966;BME280;59836;52.132;5.442;2023-03-25T07:29:51;100150.63;;;8.47;92.69
71966;BME280;59836;52.132;5.442;2023-03-25T07:32:17;100149.00;;;8.46;92.61
71966;BME280;59836;52.132;5.442;2023-03-25T07:34:46;100157.13;;;8.46;92.69
71966;BME280;59836;52.132;5.442;2023-03-25T07:37:12;100150.13;;;8.50;92.74
71966;BME280;59836;52.132;5.442;2023-03-25T07:39:39;100142.53;;;8.52;92.74
71966;BME280;59836;52.132;5.442;2023-03-25T07:42:05;100149.56;;;8.53;92.45
71966;BME280;59836;52.132;5.442;2023-03-25T07:44:32;100153.34;;;8.57;92.67
71966;BME280;59836;52.132;5.442;2023-03-25T07:46:59;100156.56;;;8.65;92.85
71966;BME280;59836;52.132;5.442;2023-03-25T07:49:25;100154.09;;;8.74;93.30
71966;BME280;59836;52.132;5.442;2023-03-25T07:51:51;100146.28;;;8.77;92.07
71966;BME280;59836;52.132;5.442;2023-03-25T07:54:18;100156.53;;;8.80;92.29
71966;BME280;59836;52.132;5.442;2023-03-25T07:56:49;100155.44;;;8.86;91.95
71966;BME280;59836;52.132;5.442;2023-03-25T07:59:18;100162.19;;;8.84;92.48
71966;BME280;59836;52.132;5.442;2023-03-25T08:01:49;100153.56;;;8.82;91.99
71966;BME280;59836;52.132;5.442;2023-03-25T08:04:16;100142.50;;;8.78;91.60
71966;BME280;59836;52.132;5.442;2023-03-25T08:06:42;100154.38;;;8.82;92.00
71966;BME280;59836;52.132;5.442;2023-03-25T08:09:09;100154.94;;;8.79;91.53
71966;BME280;59836;52.132;5.442;2023-03-25T08:11:35;100164.91;;;8.79;91.88
71966;BME280;59836;52.132;5.442;2023-03-25T08:14:02;100156.53;;;8.80;91.56
71966;BME280;59836;52.132;5.442;2023-03-25T08:16:35;100166.00;;;8.83;91.61
71966;BME280;59836;52.132;5.442;2023-03-25T08:19:02;100166.81;;;8.83;91.35
71966;BME280;59836;52.132;5.442;2023-03-25T08:21:28;100160.84;;;8.86;91.55
71966;BME280;59836;52.132;5.442;2023-03-25T08:23:56;100161.38;;;8.89;90.96
71966;BME280;59836;52.132;5.442;2023-03-25T08:26:31;100178.69;;;8.93;91.38
71966;BME280;59836;52.132;5.442;2023-03-25T08:29:00;100169.75;;;8.92;92.12
71966;BME280;59836;52.132;5.442;2023-03-25T08:31:30;100173.28;;;8.93;91.45
71966;BME280;59836;52.132;5.442;2023-03-25T08:34:01;100170.28;;;8.89;92.21
71966;BME280;59836;52.132;5.442;2023-03-25T08:36:28;100183.00;;;8.94;92.17
71966;BME280;59836;52.132;5.442;2023-03-25T08:38:55;100170.03;;;8.96;92.30
71966;BME280;59836;52.132;5.442;2023-03-25T08:41:23;100184.31;;;9.01;92.42
71966;BME280;59836;52.132;5.442;2023-03-25T08:43:50;100185.41;;;9.06;93.25
71966;BME280;59836;52.132;5.442;2023-03-25T08:46:16;100179.16;;;9.05;92.56
71966;BME280;59836;52.132;5.442;2023-03-25T08:48:44;100180.28;;;8.99;91.75
71966;BME280;59836;52.132;5.442;2023-03-25T08:51:11;100174.56;;;9.06;92.76
71966;BME280;59836;52.132;5.442;2023-03-25T08:53:38;100172.13;;;9.09;92.63
71966;BME280;59836;52.132;5.442;2023-03-25T08:56:05;100171.84;;;9.16;92.89
71966;BME280;59836;52.132;5.442;2023-03-25T08:58:32;100182.84;;;9.30;93.09
71966;BME280;59836;52.132;5.442;2023-03-25T09:00:58;100174.72;;;9.35;92.45
71966;BME280;59836;52.132;5.442;2023-03-25T09:03:27;100182.56;;;9.42;93.13
71966;BME280;59836;52.132;5.442;2023-03-25T09:05:53;100183.81;;;9.60;93.67
71966;BME280;59836;52.132;5.442;2023-03-25T09:08:20;100169.69;;;9.68;92.64
71966;BME280;59836;52.132;5.442;2023-03-25T09:10:47;100184.31;;;9.67;91.57
71966;BME280;59836;52.132;5.442;2023-03-25T09:13:14;100176.16;;;9.72;92.04
71966;BME280;59836;52.132;5.442;2023-03-25T09:15:41;100186.91;;;9.83;91.76
71966;BME280;59836;52.132;5.442;2023-03-25T09:18:07;100173.09;;;9.84;90.73
71966;BME280;59836;52.132;5.442;2023-03-25T09:20:35;100174.69;;;9.85;90.84
71966;BME280;59836;52.132;5.442;2023-03-25T09:23:01;100173.09;;;9.84;90.81
71966;BME280;59836;52.132;5.442;2023-03-25T09:25:29;100175.53;;;9.86;90.20
71966;BME280;59836;52.132;5.442;2023-03-25T09:27:55;100181.44;;;9.93;90.58
71966;BME280;59836;52.132;5.442;2023-03-25T09:30:22;100195.50;;;9.95;90.38
71966;BME280;59836;52.132;5.442;2023-03-25T09:32:48;100189.53;;;9.98;89.40
71966;BME280;59836;52.132;5.442;2023-03-25T09:35:15;100193.28;;;10.02;90.15
71966;BME280;59836;52.132;5.442;2023-03-25T09:37:44;100182.56;;;10.22;90.43
71966;BME280;59836;52.132;5.442;2023-03-25T09:40:19;100186.53;;;10.34;89.85
71966;BME280;59836;52.132;5.442;2023-03-25T09:42:49;100184.19;;;10.57;90.40
71966;BME280;59836;52.132;5.442;2023-03-25T09:45:29;100189.97;;;10.75;90.17
71966;BME280;59836;52.132;5.442;2023-03-25T09:48:03;100191.91;;;10.69;88.33
71966;BME280;59836;52.132;5.442;2023-03-25T09:50:33;100178.19;;;10.60;88.29
71966;BME280;59836;52.132;5.442;2023-03-25T09:53:05;100186.94;;;10.52;88.27
71966;BME280;59836;52.132;5.442;2023-03-25T09:55:43;100184.84;;;10.44;87.85
71966;BME280;59836;52.132;5.442;2023-03-25T10:01:24;100198.75;;;10.32;86.75
71966;BME280;59836;52.132;5.442;2023-03-25T10:07:14;100207.22;;;10.20;86.88
71966;BME280;59836;52.132;5.442;2023-03-25T10:10:01;100207.78;;;10.17;86.75
71966;BME280;59836;52.132;5.442;2023-03-25T10:12:43;100197.47;;;10.19;87.20
71966;BME280;59836;52.132;5.442;2023-03-25T10:18:27;100207.97;;;10.31;86.61
71966;BME280;59836;52.132;5.442;2023-03-25T10:21:21;100202.00;;;10.34;86.67
71966;BME280;59836;52.132;5.442;2023-03-25T10:24:25;100208.19;;;10.34;86.70
71966;BME280;59836;52.132;5.442;2023-03-25T10:27:00;100212.56;;;10.30;86.59
71966;BME280;59836;52.132;5.442;2023-03-25T10:29:34;100211.47;;;10.31;86.67
71966;BME280;59836;52.132;5.442;2023-03-25T10:32:14;100213.09;;;10.32;86.24
71966;BME280;59836;52.132;5.442;2023-03-25T10:34:49;100211.22;;;10.33;85.73
71966;BME280;59836;52.132;5.442;2023-03-25T10:37:30;100201.16;;;10.33;86.14
71966;BME280;59836;52.132;5.442;2023-03-25T10:40:13;100208.72;;;10.37;85.54
71966;BME280;59836;52.132;5.442;2023-03-25T10:45:21;100206.53;;;10.44;84.55
71966;BME280;59836;52.132;5.442;2023-03-25T10:47:50;100232.28;;;10.46;83.99
71966;BME280;59836;52.132;5.442;2023-03-25T10:50:20;100217.84;;;10.51;83.60
71966;BME280;59836;52.132;5.442;2023-03-25T10:52:48;100208.06;;;10.55;84.04
71966;BME280;59836;52.132;5.442;2023-03-25T10:55:24;100225.94;;;10.56;82.39
71966;BME280;59836;52.132;5.442;2023-03-25T10:57:53;100215.69;;;10.53;81.95
71966;BME280;59836;52.132;5.442;2023-03-25T11:00:21;100212.44;;;10.51;82.28
71966;BME280;59836;52.132;5.442;2023-03-25T11:02:51;100231.47;;;10.46;81.53
71966;BME280;59836;52.132;5.442;2023-03-25T11:05:23;100234.75;;;10.43;81.39
71966;BME280;59836;52.132;5.442;2023-03-25T11:07:55;100222.81;;;10.44;82.56
71966;BME280;59836;52.132;5.442;2023-03-25T11:10:26;100237.94;;;10.50;83.12
71966;BME280;59836;52.132;5.442;2023-03-25T11:12:53;100235.22;;;10.50;83.37
71966;BME280;59836;52.132;5.442;2023-03-25T11:15:29;100240.59;;;10.55;83.01
71966;BME280;59836;52.132;5.442;2023-03-25T11:20:37;100241.94;;;10.58;82.89
71966;BME280;59836;52.132;5.442;2023-03-25T11:23:07;100246.59;;;10.52;83.76
71966;BME280;59836;52.132;5.442;2023-03-25T11:25:39;100248.78;;;10.50;84.36
71966;BME280;59836;52.132;5.442;2023-03-25T11:28:16;100240.59;;;10.55;83.63
71966;BME280;59836;52.132;5.442;2023-03-25T11:33:37;100243.22;;;10.66;83.18
71966;BME280;59836;52.132;5.442;2023-03-25T11:36:27;100244.66;;;10.58;81.69
71966;BME280;59836;52.132;5.442;2023-03-25T11:39:00;100246.59;;;10.52;82.11
71966;BME280;59836;52.132;5.442;2023-03-25T11:41:28;100241.72;;;10.49;81.93
71966;BME280;59836;52.132;5.442;2023-03-25T11:43:56;100235.75;;;10.52;81.93
71966;BME280;59836;52.132;5.442;2023-03-25T11:46:22;100248.22;;;10.53;80.73
71966;BME280;59836;52.132;5.442;2023-03-25T11:48:49;100240.38;;;10.52;81.60
71966;BME280;59836;52.132;5.442;2023-03-25T11:51:22;100253.41;;;10.79;80.57
71966;BME280;59836;52.132;5.442;2023-03-25T11:53:55;100248.16;;;10.88;79.62
71966;BME280;59836;52.132;5.442;2023-03-25T11:56:28;100237.47;;;11.02;79.79
71966;BME280;59836;52.132;5.442;2023-03-25T11:58:59;100239.09;;;11.03;78.87
71966;BME280;59836;52.132;5.442;2023-03-25T12:01:40;100239.41;;;10.96;79.29
71966;BME280;59836;52.132;5.442;2023-03-25T12:04:22;100246.75;;;10.96;79.21
71966;BME280;59836;52.132;5.442;2023-03-25T12:06:56;100244.47;;;11.08;79.69
71966;BME280;59836;52.132;5.442;2023-03-25T12:09:25;100243.34;;;11.09;79.59
71966;BME280;59836;52.132;5.442;2023-03-25T12:12:31;100228.44;;;11.06;79.08
71966;BME280;59836;52.132;5.442;2023-03-25T12:15:18;100227.66;;;11.06;79.31
71966;BME280;59836;52.132;5.442;2023-03-25T12:20:24;100229.22;;;11.12;78.87
71966;BME280;59836;52.132;5.442;2023-03-25T12:22:59;100241.38;;;11.15;79.25
71966;BME280;59836;52.132;5.442;2023-03-25T12:25:51;100241.97;;;11.12;78.67
71966;BME280;59836;52.132;5.442;2023-03-25T12:31:22;100216.81;;;11.49;77.40
71966;BME280;59836;52.132;5.442;2023-03-25T12:37:10;100231.28;;;11.64;76.35
71966;BME280;59836;52.132;5.442;2023-03-25T12:43:03;100220.88;;;11.71;76.21
71966;BME280;59836;52.132;5.442;2023-03-25T12:56:56;100230.13;;;12.28;72.90
71966;BME280;59836;52.132;5.442;2023-03-25T13:04:54;100219.47;;;12.64;72.45
71966;BME280;59836;52.132;5.442;2023-03-25T13:07:27;100228.84;;;12.72;71.07
71966;BME280;59836;52.132;5.442;2023-03-25T13:10:10;100248.03;;;12.81;70.83
71966;BME280;59836;52.132;5.442;2023-03-25T13:12:42;100227.19;;;12.90;69.98
71966;BME280;59836;52.132;5.442;2023-03-25T13:15:19;100233.72;;;12.89;69.94
71966;BME280;59836;52.132;5.442;2023-03-25T13:18:05;100237.06;;;13.00;70.27
71966;BME280;59836;52.132;5.442;2023-03-25T13:20:44;100237.56;;;13.02;69.67
71966;BME280;59836;52.132;5.442;2023-03-25T13:23:16;100222.56;;;13.05;69.50
71966;BME280;59836;52.132;5.442;2023-03-25T13:25:50;100242.91;;;12.93;68.87
71966;BME280;59836;52.132;5.442;2023-03-25T13:28:26;100262.66;;;12.85;68.38
71966;BME280;59836;52.132;5.442;2023-03-25T13:30:55;100241.66;;;12.85;68.42
71966;BME280;59836;52.132;5.442;2023-03-25T13:33:27;100245.31;;;12.81;68.68
71966;BME280;59836;52.132;5.442;2023-03-25T13:36:04;100257.97;;;12.72;68.85
71966;BME280;59836;52.132;5.442;2023-03-25T13:38:39;100247.59;;;12.74;68.40
71966;BME280;59836;52.132;5.442;2023-03-25T13:41:22;100249.31;;;12.69;68.94
71966;BME280;59836;52.132;5.442;2023-03-25T13:44:02;100244.38;;;12.72;69.41
71966;BME280;59836;52.132;5.442;2023-03-25T13:46:40;100257.97;;;12.72;70.08
71966;BME280;59836;52.132;5.442;2023-03-25T13:49:17;100271.06;;;12.69;69.62
71966;BME280;59836;52.132;5.442;2023-03-25T13:51:48;100247.69;;;12.68;70.55
71966;BME280;59836;52.132;5.442;2023-03-25T13:54:35;100271.16;;;12.64;69.96
71966;BME280;59836;52.132;5.442;2023-03-25T14:00:03;100249.50;;;12.73;68.88
71966;BME280;59836;52.132;5.442;2023-03-25T14:02:42;100266.47;;;12.84;68.17
71966;BME280;59836;52.132;5.442;2023-03-25T14:05:48;100280.41;;;12.63;68.02
71966;BME280;59836;52.132;5.442;2023-03-25T14:14:07;100334.03;;;11.81;75.89
71966;BME280;59836;52.132;5.442;2023-03-25T14:16:47;100321.63;;;11.50;77.15
71966;BME280;59836;52.132;5.442;2023-03-25T14:19:18;100332.75;;;11.25;78.96
71966;BME280;59836;52.132;5.442;2023-03-25T14:21:50;100335.38;;;11.05;79.86
71966;BME280;59836;52.132;5.442;2023-03-25T14:24:31;100344.44;;;10.96;82.10
71966;BME280;59836;52.132;5.442;2023-03-25T14:27:04;100340.66;;;10.91;82.51
71966;BME280;59836;52.132;5.442;2023-03-25T14:29:39;100331.56;;;11.06;84.32
71966;BME280;59836;52.132;5.442;2023-03-25T14:34:43;100328.41;;;11.23;83.31
71966;BME280;59836;52.132;5.442;2023-03-25T14:39:55;100329.88;;;11.40;83.96
71966;BME280;59836;52.132;5.442;2023-03-25T14:42:55;100320.88;;;11.45;83.91
71966;BME280;59836;52.132;5.442;2023-03-25T14:45:49;100332.44;;;11.56;82.85
71966;BME280;59836;52.132;5.442;2023-03-25T14:48:37;100319.78;;;11.70;82.61
71966;BME280;59836;52.132;5.442;2023-03-25T14:51:41;100314.78;;;11.77;80.93
71966;BME280;59836;52.132;5.442;2023-03-25T14:54:16;100310.47;;;11.76;80.61
71966;BME280;59836;52.132;5.442;2023-03-25T14:57:07;100310.47;;;11.76;80.77
71966;BME280;59836;52.132;5.442;2023-03-25T14:59:40;100330.44;;;11.86;80.40
71966;BME280;59836;52.132;5.442;2023-03-25T15:02:16;100317.72;;;11.81;78.75
71966;BME280;59836;52.132;5.442;2023-03-25T15:04:51;100332.31;;;11.66;76.76
71966;BME280;59836;52.132;5.442;2023-03-25T15:07:38;100329.75;;;11.50;77.62
71966;BME280;59836;52.132;5.442;2023-03-25T15:10:06;100328.50;;;11.43;76.53